Time;durP1;ratioP1;P1;durP2;ratioP2;P2;SDS_P1;SDS_P2;PMS_P1;PMS_P2;Temp;Humidity;BMP_temperature;BMP_pressure;BME280_temperature;BME280_humidity;BME280_pressure;Samples;Min_cycle;Max_cycle;Signal;HPM_P1;HPM_P2
2021/04/15 00:01:13;;;;;;;7.47;4.45;;;3.30;99.90;;;;;;5035394;28;20108;-76
2021/04/15 00:03:38;;;;;;;5.95;3.75;;;3.30;99.90;;;;;;5035636;28;20022;-77
2021/04/15 00:06:16;;;;;;;8.27;3.83;;;3.20;99.90;;;;;;5035259;28;20037;-77
2021/04/15 00:08:43;;;;;;;8.77;5.20;;;3.50;99.90;;;;;;5035422;28;20465;-76
2021/04/15 00:11:11;;;;;;;6.30;4.30;;;3.20;99.90;;;;;;5017285;28;20029;-77
2021/04/15 00:13:46;;;;;;;6.90;3.80;;;2.80;99.90;;;;;;5035102;28;20022;-77
2021/04/15 00:16:12;;;;;;;7.63;4.28;;;2.90;99.90;;;;;;5017616;28;20499;-77
2021/04/15 00:18:38;;;;;;;8.75;4.43;;;2.70;99.90;;;;;;5017291;28;20025;-77
2021/04/15 00:21:06;;;;;;;7.50;3.70;;;2.90;99.90;;;;;;5017207;28;20031;-78
2021/04/15 00:23:32;;;;;;;11.77;4.20;;;3.10;99.90;;;;;;5034901;28;20025;-77
2021/04/15 00:25:59;;;;;;;5.50;4.20;;;3.10;99.90;;;;;;5034832;28;20092;-77
2021/04/15 00:28:24;;;;;;;6.50;3.85;;;3.30;99.90;;;;;;5035072;28;20025;-78
2021/04/15 00:30:51;;;;;;;8.35;4.20;;;3.30;99.90;;;;;;5034700;28;20082;-77
2021/04/15 00:33:17;;;;;;;5.72;4.13;;;3.40;99.90;;;;;;5034725;28;20104;-77
2021/04/15 00:35:43;;;;;;;6.50;4.10;;;3.10;99.90;;;;;;5016942;28;20025;-78
2021/04/15 00:38:10;;;;;;;7.25;4.47;;;2.80;99.90;;;;;;5016858;28;20495;-77
2021/04/15 00:40:38;;;;;;;7.05;4.53;;;2.80;99.90;;;;;;5016834;28;20028;-77
2021/04/15 00:43:05;;;;;;;11.60;4.63;;;2.70;99.90;;;;;;5016588;28;20049;-77
2021/04/15 00:45:35;;;;;;;10.20;4.60;;;2.70;99.90;;;;;;5034471;28;20036;-77
2021/04/15 00:48:23;;;;;;;5.85;4.10;;;2.50;99.90;;;;;;5034697;28;20021;-78
2021/04/15 00:51:01;;;;;;;6.75;4.25;;;2.20;99.90;;;;;;5016652;28;20116;-77
2021/04/15 00:53:33;;;;;;;7.70;4.32;;;2.60;99.90;;;;;;5034405;28;20022;-76
2021/04/15 00:55:59;;;;;;;7.63;4.05;;;2.70;99.90;;;;;;5034613;28;20493;-77
2021/04/15 00:58:27;;;;;;;6.57;4.20;;;3.00;99.90;;;;;;5034541;28;20424;-77
2021/04/15 01:00:53;;;;;;;10.07;4.20;;;3.20;99.90;;;;;;5033948;28;20057;-77
2021/04/15 01:03:19;;;;;;;8.15;4.00;;;2.70;99.90;;;;;;5034136;28;20026;-77
2021/04/15 01:05:47;;;;;;;6.35;4.35;;;2.70;99.90;;;;;;5034084;28;20545;-77
2021/04/15 01:08:13;;;;;;;5.95;3.95;;;3.00;99.90;;;;;;5034108;28;20029;-76
2021/04/15 01:10:45;;;;;;;7.35;4.10;;;3.00;99.90;;;;;;5016431;28;20060;-77
2021/04/15 01:13:55;;;;;;;5.43;3.63;;;3.20;99.90;;;;;;5034327;28;20022;-77
2021/04/15 01:16:36;;;;;;;8.77;4.10;;;3.30;99.90;;;;;;5011431;28;20145;-76
2021/04/15 01:19:30;;;;;;;6.05;4.07;;;3.20;99.90;;;;;;5016217;28;20163;-77
2021/04/15 01:22:34;;;;;;;12.60;4.15;;;2.40;99.90;;;;;;5033846;28;20056;-76
2021/04/15 01:25:15;;;;;;;7.93;4.07;;;2.70;99.90;;;;;;5011757;28;20084;-77
2021/04/15 01:27:49;;;;;;;8.65;4.03;;;2.60;99.90;;;;;;5016106;28;20034;-77
2021/04/15 01:30:32;;;;;;;7.10;4.05;;;2.70;99.90;;;;;;5034020;28;20032;-77
2021/04/15 01:33:07;;;;;;;8.18;4.18;;;2.60;99.90;;;;;;5034015;28;20053;-77
2021/04/15 01:35:40;;;;;;;5.57;3.50;;;2.70;99.90;;;;;;5033615;28;20387;-77
2021/04/15 01:38:28;;;;;;;4.70;3.57;;;2.40;99.90;;;;;;5015904;28;20029;-77
2021/04/15 01:41:28;;;;;;;5.80;4.22;;;2.30;99.90;;;;;;5015844;28;20433;-76
2021/04/15 01:44:13;;;;;;;8.57;4.22;;;1.90;99.90;;;;;;4984184;28;20050;-76
2021/04/15 01:46:41;;;;;;;6.38;4.10;;;2.10;99.90;;;;;;5034055;28;20026;-77
2021/04/15 01:49:09;;;;;;;6.70;4.10;;;2.30;99.90;;;;;;5015777;28;20025;-77
2021/04/15 01:51:44;;;;;;;6.53;3.72;;;2.40;99.90;;;;;;5015649;28;20029;-76
2021/04/15 01:54:35;;;;;;;5.97;3.70;;;2.60;99.90;;;;;;5033669;28;20032;-77
2021/04/15 01:57:08;;;;;;;5.25;3.53;;;2.70;99.90;;;;;;5015643;28;20026;-77
2021/04/15 01:59:50;;;;;;;6.20;3.72;;;2.80;99.90;;;;;;5033331;28;20052;-77
2021/04/15 02:02:19;;;;;;;8.10;4.07;;;2.90;99.90;;;;;;5033628;28;20052;-77
2021/04/15 02:05:13;;;;;;;6.15;3.53;;;2.90;99.90;;;;;;5015563;28;20025;-77
2021/04/15 02:07:43;;;;;;;5.45;4.18;;;2.30;99.90;;;;;;5012495;28;20408;-76
2021/04/15 02:10:12;;;;;;;5.70;3.58;;;1.90;99.90;;;;;;5015557;28;20493;-77
2021/04/15 02:12:42;;;;;;;6.90;3.30;;;2.10;99.90;;;;;;5015426;28;20021;-77
2021/04/15 02:15:10;;;;;;;6.03;4.32;;;2.40;99.90;;;;;;5020466;28;20506;-77
2021/04/15 02:17:39;;;;;;;6.88;4.30;;;2.20;99.90;;;;;;5037726;28;20025;-77
2021/04/15 02:20:10;;;;;;;6.10;3.70;;;2.40;99.90;;;;;;5019528;28;20029;-77
2021/04/15 02:22:59;;;;;;;6.30;4.13;;;2.50;99.90;;;;;;5019396;28;20032;-77
2021/04/15 02:26:15;;;;;;;9.50;4.05;;;2.80;99.90;;;;;;5037052;28;20036;-77
2021/04/15 02:29:00;;;;;;;6.40;3.38;;;2.60;99.90;;;;;;5002795;28;20038;-77
2021/04/15 02:31:35;;;;;;;7.10;4.30;;;2.60;99.90;;;;;;5019221;28;20500;-77
2021/04/15 02:34:08;;;;;;;6.43;4.00;;;2.40;99.90;;;;;;5019317;28;20163;-77
2021/04/15 02:36:56;;;;;;;6.45;4.20;;;2.40;99.90;;;;;;5019239;28;20021;-78
2021/04/15 02:39:35;;;;;;;136.10;35.08;;;2.60;99.90;;;;;;5019111;28;20022;-77
2021/04/15 02:42:12;;;;;;;16.08;6.28;;;2.30;99.90;;;;;;5018908;28;20057;-78
2021/04/15 02:44:48;;;;;;;11.15;4.78;;;2.10;99.90;;;;;;5037085;28;20057;-77
2021/04/15 02:47:19;;;;;;;8.27;5.18;;;2.10;99.90;;;;;;5019092;28;20167;-77
2021/04/15 02:49:47;;;;;;;9.35;4.80;;;2.10;99.90;;;;;;5018954;28;20036;-78
2021/04/15 02:52:26;;;;;;;12.75;5.30;;;2.00;99.90;;;;;;5036574;28;20033;-77
2021/04/15 02:54:58;;;;;;;10.13;4.63;;;2.00;99.90;;;;;;5036652;28;20017;-77
2021/04/15 02:57:33;;;;;;;8.27;5.00;;;2.20;99.90;;;;;;5018772;28;20028;-77
2021/04/15 03:00:10;;;;;;;7.60;4.50;;;2.20;99.90;;;;;;5036564;28;20049;-77
2021/04/15 03:02:42;;;;;;;10.68;4.78;;;1.80;99.90;;;;;;5036429;28;20095;-76
2021/04/15 03:05:23;;;;;;;6.65;4.57;;;1.80;99.90;;;;;;5018775;28;20065;-77
2021/04/15 03:07:51;;;;;;;7.78;4.53;;;1.30;99.90;;;;;;5036401;28;20026;-77
2021/04/15 03:10:23;;;;;;;9.65;4.57;;;1.60;99.90;;;;;;5018559;28;20033;-77
2021/04/15 03:12:56;;;;;;;8.10;4.82;;;1.50;99.90;;;;;;5018472;28;20029;-77
2021/04/15 03:15:26;;;;;;;8.63;4.88;;;1.70;99.90;;;;;;5036259;28;20048;-77
2021/04/15 03:17:57;;;;;;;11.30;4.82;;;1.80;99.90;;;;;;5018726;28;20509;-77
2021/04/15 03:20:31;;;;;;;9.73;4.63;;;1.80;99.90;;;;;;5036176;28;20444;-77
2021/04/15 03:23:05;;;;;;;8.73;4.07;;;1.90;99.90;;;;;;5036409;28;20018;-77
2021/04/15 03:25:31;;;;;;;6.43;4.43;;;1.80;99.90;;;;;;5036256;28;20041;-77
2021/04/15 03:28:23;;;;;;;9.23;5.05;;;2.20;99.90;;;;;;5035988;28;20271;-77
2021/04/15 03:31:17;;;;;;;7.35;4.85;;;1.90;99.90;;;;;;5036167;28;20022;-77
2021/04/15 03:33:56;;;;;;;6.57;3.97;;;2.20;99.90;;;;;;5035302;28;20485;-77
2021/04/15 03:36:33;;;;;;;7.63;4.70;;;2.20;99.90;;;;;;5036142;28;20489;-77
2021/04/15 03:39:05;;;;;;;10.43;5.30;;;1.90;99.90;;;;;;5035842;28;20021;-77
2021/04/15 03:41:40;;;;;;;8.57;4.88;;;1.60;99.90;;;;;;5035735;28;20049;-77
2021/04/15 03:44:11;;;;;;;5.85;4.20;;;1.40;99.90;;;;;;5035782;28;20061;-77
2021/04/15 03:46:45;;;;;;;8.70;4.60;;;1.80;99.90;;;;;;5017900;28;20067;-77
2021/04/15 03:49:16;;;;;;;10.77;4.47;;;2.00;99.90;;;;;;5035925;28;20026;-77
2021/04/15 03:51:46;;;;;;;9.23;4.22;;;1.70;99.90;;;;;;5017749;28;20124;-77
2021/04/15 03:54:17;;;;;;;5.93;3.85;;;1.90;99.90;;;;;;5035505;28;20025;-77
2021/04/15 03:56:50;;;;;;;6.20;4.10;;;2.20;99.90;;;;;;5017765;28;20391;-77
2021/04/15 03:59:38;;;;;;;6.28;4.00;;;1.80;99.90;;;;;;5017793;28;20026;-77
2021/04/15 04:02:09;;;;;;;7.13;4.38;;;1.70;99.90;;;;;;5035608;28;20029;-77
2021/04/15 04:04:53;;;;;;;15.07;5.72;;;1.50;99.90;;;;;;5017630;28;20101;-77
2021/04/15 04:07:23;;;;;;;10.10;4.85;;;1.80;99.90;;;;;;5017541;28;20063;-77
2021/04/15 04:10:15;;;;;;;11.52;5.57;;;1.90;99.90;;;;;;5035229;28;20091;-77
2021/04/15 04:13:16;;;;;;;9.77;5.57;;;1.50;99.90;;;;;;4989088;28;20041;-77
2021/04/15 04:15:47;;;;;;;12.80;5.43;;;1.10;99.90;;;;;;5012391;28;20037;-78
2021/04/15 04:18:26;;;;;;;9.07;5.00;;;1.40;99.90;;;;;;5035076;28;20033;-77
2021/04/15 04:20:58;;;;;;;8.55;4.80;;;1.70;99.90;;;;;;5017182;28;20029;-77
2021/04/15 04:23:48;;;;;;;6.05;4.15;;;1.30;99.90;;;;;;5035185;28;20029;-77
2021/04/15 04:26:19;;;;;;;7.55;4.43;;;2.00;99.90;;;;;;5034873;28;20036;-78
2021/04/15 04:28:51;;;;;;;9.45;4.38;;;2.00;99.90;;;;;;5034805;28;20025;-78
2021/04/15 04:31:24;;;;;;;7.20;4.30;;;2.00;99.90;;;;;;5034699;28;20029;-78
2021/04/15 04:33:53;;;;;;;8.75;4.75;;;1.70;99.90;;;;;;5034805;28;20029;-78
2021/04/15 04:36:22;;;;;;;9.90;4.78;;;1.80;99.90;;;;;;5016316;28;20021;-78
2021/04/15 04:38:48;;;;;;;8.77;4.72;;;1.70;99.90;;;;;;5034506;28;20027;-78
2021/04/15 04:41:47;;;;;;;8.05;5.10;;;1.30;99.90;;;;;;5017284;28;20380;-78
2021/04/15 04:44:27;;;;;;;11.75;5.47;;;;;;;;;;5016689;28;20033;-78
2021/04/15 04:47:05;;;;;;;7.18;4.57;;;0.60;99.90;;;;;;5016653;28;20022;-78
2021/04/15 04:49:34;;;;;;;5.60;4.40;;;1.00;99.90;;;;;;5016695;28;20032;-77
2021/04/15 04:52:06;;;;;;;7.85;4.30;;;1.30;99.90;;;;;;5034302;28;20030;-77
2021/04/15 04:54:32;;;;;;;7.38;4.32;;;1.60;99.90;;;;;;5034327;28;20022;-78
2021/04/15 04:57:04;;;;;;;6.28;4.25;;;2.10;99.90;;;;;;5034302;28;20026;-77
2021/04/15 04:59:34;;;;;;;10.65;5.25;;;1.80;99.90;;;;;;5034271;28;20485;-78
2021/04/15 05:02:00;;;;;;;9.13;4.78;;;1.70;99.90;;;;;;5034465;28;20029;-78
2021/04/15 05:04:30;;;;;;;8.95;4.40;;;1.30;99.90;;;;;;5016445;28;20026;-78
2021/04/15 05:07:01;;;;;;;9.35;5.35;;;1.20;99.90;;;;;;5016468;28;20028;-77
2021/04/15 05:09:34;;;;;;;7.80;4.75;;;0.80;99.90;;;;;;5016367;28;20032;-78
2021/04/15 05:12:05;;;;;;;6.72;4.85;;;1.00;99.90;;;;;;5016219;28;20038;-78
2021/04/15 05:14:31;;;;;;;7.05;4.50;;;1.10;99.90;;;;;;5016293;28;20025;-77
2021/04/15 05:17:06;;;;;;;8.27;4.13;;;1.20;99.90;;;;;;5016190;28;20032;-77
2021/04/15 05:19:35;;;;;;;8.75;4.20;;;1.90;99.90;;;;;;5016174;28;20411;-77
2021/04/15 05:22:05;;;;;;;9.15;4.60;;;2.20;99.90;;;;;;5033795;28;20033;-77
2021/04/15 05:24:49;;;;;;;9.88;5.47;;;1.80;99.90;;;;;;5033804;28;20025;-77
2021/04/15 05:27:17;;;;;;;;;;;1.20;99.90;;;;;;5016479;28;20025;-77
2021/04/15 05:29:43;;;;;;;8.65;5.57;;;1.20;99.90;;;;;;5015992;28;19940;-77
2021/04/15 05:32:16;;;;;;;9.40;6.32;;;0.90;99.90;;;;;;5015911;28;20029;-77
2021/04/15 05:34:52;;;;;;;10.85;5.75;;;0.70;99.90;;;;;;5033942;28;20025;-77
2021/04/15 05:37:25;;;;;;;7.90;5.15;;;0.90;99.90;;;;;;5033891;28;20013;-78
2021/04/15 05:39:54;;;;;;;12.93;5.53;;;1.40;99.90;;;;;;5033474;28;20444;-77
2021/04/15 05:42:34;;;;;;;13.30;6.22;;;2.00;99.90;;;;;;5033487;28;20562;-77
2021/04/15 05:45:21;;;;;;;8.77;5.63;;;1.70;99.90;;;;;;5033713;28;20044;-77
2021/04/15 05:47:46;;;;;;;7.38;5.22;;;1.60;99.90;;;;;;5014820;28;20076;-77
2021/04/15 05:50:27;;;;;;;12.50;6.38;;;1.90;99.90;;;;;;5033693;28;20030;-77
2021/04/15 05:53:22;;;;;;;11.48;6.40;;;2.10;99.90;;;;;;5015586;28;20035;-77
2021/04/15 05:55:49;;;;;;;;;;;2.20;99.90;;;;;;5007206;28;20029;-78
2021/04/15 05:58:23;;;;;;;12.77;6.38;;;2.40;99.90;;;;;;5033538;28;19996;-77
2021/04/15 06:00:53;;;;;;;14.60;6.53;;;2.50;99.90;;;;;;5033318;28;20036;-77
2021/04/15 06:03:35;;;;;;;14.27;7.55;;;2.60;99.90;;;;;;5015409;28;20036;-78
2021/04/15 06:06:09;;;;;;;11.88;6.75;;;2.20;99.90;;;;;;5015515;28;20026;-77
2021/04/15 06:08:38;;;;;;;13.57;6.45;;;2.30;99.90;;;;;;5033536;28;20464;-77
2021/04/15 06:11:34;;;;;;;9.82;6.47;;;2.30;99.90;;;;;;5015605;28;20029;-77
2021/04/15 06:14:08;;;;;;;9.60;5.68;;;2.20;99.90;;;;;;5032055;28;20144;-77
2021/04/15 06:17:00;;;;;;;11.15;6.22;;;2.20;99.90;;;;;;5033774;28;20071;-77
2021/04/15 06:19:27;;;;;;;12.75;5.78;;;2.00;99.90;;;;;;5015520;28;20071;-76
2021/04/15 06:22:16;;;;;;;11.60;5.78;;;1.90;99.90;;;;;;5015378;28;20167;-77
2021/04/15 06:24:45;;;;;;;7.18;4.43;;;2.00;99.90;;;;;;5015317;28;20018;-77
2021/04/15 06:27:12;;;;;;;9.80;4.30;;;2.30;99.90;;;;;;5015315;28;20037;-77
2021/04/15 06:29:51;;;;;;;8.55;4.82;;;2.40;99.90;;;;;;5033032;28;20083;-77
2021/04/15 06:32:23;;;;;;;9.65;5.00;;;2.40;99.90;;;;;;5015258;28;20041;-77
2021/04/15 06:34:49;;;;;;;10.85;4.80;;;2.50;99.90;;;;;;5015314;28;20021;-77
2021/04/15 06:37:36;;;;;;;9.45;4.60;;;2.70;99.90;;;;;;5015141;28;20032;-77
2021/04/15 06:40:24;;;;;;;9.95;4.95;;;2.80;99.90;;;;;;5033104;28;20018;-77
2021/04/15 06:43:16;;;;;;;12.93;4.68;;;2.60;99.90;;;;;;5016461;28;20538;-77
2021/04/15 06:46:10;;;;;;;11.63;5.38;;;2.80;99.90;;;;;;5015219;28;20035;-76
2021/04/15 06:48:59;;;;;;;9.63;4.85;;;3.00;99.90;;;;;;5015207;28;20025;-77
2021/04/15 06:51:47;;;;;;;10.05;4.80;;;3.40;99.90;;;;;;5032784;28;20034;-76
2021/04/15 06:54:38;;;;;;;18.13;6.57;;;3.70;99.90;;;;;;5032795;28;20104;-77
2021/04/15 06:57:22;;;;;;;13.38;7.00;;;3.60;99.90;;;;;;5033031;28;20026;-76
2021/04/15 07:00:36;;;;;;;14.77;5.40;;;3.50;99.90;;;;;;5016748;28;20028;-77
2021/04/15 07:03:34;;;;;;;5.97;3.80;;;3.60;99.90;;;;;;5015451;28;20080;-77
2021/04/15 07:06:32;;;;;;;7.07;3.83;;;3.80;99.90;;;;;;5018585;28;20029;-77
2021/04/15 07:09:18;;;;;;;12.20;4.43;;;3.90;99.90;;;;;;5036652;28;20025;-78
2021/04/15 07:11:50;;;;;;;8.02;4.25;;;4.00;99.90;;;;;;5036127;28;20384;-77
2021/04/15 07:14:40;;;;;;;8.57;4.13;;;4.10;99.90;;;;;;5018374;28;20028;-77
2021/04/15 07:17:18;;;;;;;12.73;3.95;;;4.10;99.90;;;;;;5036203;28;20021;-77
2021/04/15 07:20:22;;;;;;;13.13;4.30;;;4.10;99.90;;;;;;5036380;28;20444;-77
2021/04/15 07:22:56;;;;;;;9.45;3.70;;;4.20;99.90;;;;;;5018308;28;20033;-77
2021/04/15 07:25:59;;;;;;;6.05;3.50;;;4.30;99.90;;;;;;5036019;28;20033;-77
2021/04/15 07:28:37;;;;;;;6.55;3.50;;;4.40;99.90;;;;;;5018138;28;20507;-77
2021/04/15 07:31:24;;;;;;;11.02;3.85;;;4.50;99.90;;;;;;5017985;28;20022;-77
2021/04/15 07:34:11;;;;;;;9.90;3.65;;;4.50;99.90;;;;;;5018015;28;20037;-77
2021/04/15 07:37:04;;;;;;;6.30;3.63;;;4.50;99.90;;;;;;5035886;28;20021;-78
2021/04/15 07:39:35;;;;;;;8.88;4.10;;;4.60;99.90;;;;;;5017919;28;20030;-77
2021/04/15 07:42:28;;;;;;;10.05;3.78;;;4.70;99.90;;;;;;5035592;28;20053;-78
2021/04/15 07:45:00;;;;;;;10.80;3.30;;;4.90;99.90;;;;;;5018112;28;20038;-78
2021/04/15 07:48:07;;;;;;;5.00;3.50;;;5.10;99.90;;;;;;5035106;28;20033;-78
2021/04/15 07:51:11;;;;;;;8.05;3.85;;;5.10;99.90;;;;;;5017746;28;20049;-79
2021/04/15 07:54:19;;;;;;;7.05;3.70;;;5.20;99.90;;;;;;5017678;28;20030;-79
2021/04/15 07:57:12;;;;;;;12.68;3.80;;;5.20;99.90;;;;;;5017409;28;20033;-79
2021/04/15 08:00:23;;;;;;;9.82;3.80;;;5.30;99.90;;;;;;5017502;28;20044;-79
2021/04/15 08:03:08;;;;;;;9.77;3.85;;;5.30;99.90;;;;;;5017518;28;20025;-78
2021/04/15 08:05:59;;;;;;;8.63;3.75;;;5.40;99.90;;;;;;5032219;28;20105;-78
2021/04/15 08:08:34;;;;;;;5.93;3.75;;;5.50;99.90;;;;;;5017529;28;20117;-78
2021/04/15 08:11:25;;;;;;;6.32;3.53;;;5.80;99.90;;;;;;5016408;28;20076;-79
2021/04/15 08:14:15;;;;;;;15.85;4.15;;;5.70;99.90;;;;;;5017315;28;20026;-77
2021/04/15 08:17:12;;;;;;;5.03;3.35;;;5.70;99.90;;;;;;5017272;28;20366;-79
2021/04/15 08:20:20;;;;;;;10.77;3.95;;;6.00;99.90;;;;;;5017218;28;20408;-77
2021/04/15 08:23:19;;;;;;;7.55;3.33;;;5.90;99.90;;;;;;5017222;28;20554;-76
2021/04/15 08:26:13;;;;;;;8.55;4.28;;;6.00;99.90;;;;;;5017114;28;20060;-78
2021/04/15 08:29:09;;;;;;;4.72;3.42;;;6.20;99.90;;;;;;5017053;28;20540;-76
2021/04/15 08:32:13;;;;;;;5.75;3.58;;;6.50;99.90;;;;;;5016831;28;20025;-77
2021/04/15 08:35:20;;;;;;;6.82;4.10;;;6.60;99.90;;;;;;5034932;28;20361;-77
2021/04/15 08:37:55;;;;;;;10.77;3.78;;;6.60;99.90;;;;;;5035123;28;20018;-77
2021/04/15 08:40:44;;;;;;;11.18;4.55;;;6.80;99.90;;;;;;5034611;28;20057;-77
2021/04/15 08:43:32;;;;;;;10.05;3.80;;;6.80;99.90;;;;;;5034412;28;20088;-77
2021/04/15 08:46:17;;;;;;;8.60;3.50;;;7.00;99.90;;;;;;5034434;28;20026;-77
2021/04/15 08:48:58;;;;;;;5.68;3.60;;;6.90;99.90;;;;;;5016761;28;20025;-76
2021/04/15 08:52:08;;;;;;;6.40;3.53;;;6.80;99.90;;;;;;5034639;28;20168;-77
2021/04/15 08:54:45;;;;;;;4.57;3.05;;;7.10;99.90;;;;;;4980062;28;20029;-79
2021/04/15 08:57:39;;;;;;;6.63;3.22;;;7.20;99.90;;;;;;5016384;28;20112;-79
2021/04/15 09:00:05;;;;;;;8.77;3.35;;;7.50;99.90;;;;;;5034527;28;20017;-78
2021/04/15 09:02:48;;;;;;;8.02;2.97;;;7.60;99.90;;;;;;5034380;28;20037;-77
2021/04/15 09:05:24;;;;;;;5.53;3.20;;;7.40;99.90;;;;;;5016462;28;20029;-78
2021/04/15 09:07:59;;;;;;;6.65;3.55;;;7.60;99.90;;;;;;5000729;28;20389;-78
2021/04/15 09:10:34;;;;;;;7.30;3.30;;;7.40;99.90;;;;;;5016292;28;20492;-77
2021/04/15 09:13:18;;;;;;;8.20;3.35;;;7.00;99.90;;;;;;5033867;28;20388;-76
2021/04/15 09:16:15;;;;;;;4.85;2.83;;;6.80;99.90;;;;;;5016196;28;20017;-77
2021/04/15 09:18:46;;;;;;;7.68;3.88;;;7.20;99.90;;;;;;5033730;28;20423;-77
2021/04/15 09:21:31;;;;;;;10.27;3.58;;;7.70;99.90;;;;;;5016182;28;20032;-77
2021/04/15 09:24:15;;;;;;;6.97;3.67;;;7.60;99.90;;;;;;5015946;28;20044;-78
2021/04/15 09:27:07;;;;;;;5.03;2.83;;;7.30;99.90;;;;;;5016068;28;20026;-77
2021/04/15 09:30:09;;;;;;;6.53;3.13;;;7.10;99.90;;;;;;5033731;28;20552;-77
2021/04/15 09:33:04;;;;;;;9.73;3.22;;;7.40;99.90;;;;;;5033593;28;20060;-77
2021/04/15 09:36:01;;;;;;;8.85;2.83;;;7.50;99.90;;;;;;5003195;28;20036;-77
2021/04/15 09:38:32;;;;;;;6.97;2.97;;;7.30;99.90;;;;;;5015870;28;20378;-77
2021/04/15 09:41:17;;;;;;;6.57;2.88;;;7.40;99.90;;;;;;5015972;28;20072;-79
2021/04/15 09:43:43;;;;;;;6.50;2.92;;;8.00;99.90;;;;;;5014113;28;20041;-77
2021/04/15 09:46:25;;;;;;;5.95;3.22;;;8.20;99.90;;;;;;5012549;28;20018;-77
2021/04/15 09:49:18;;;;;;;6.35;2.60;;;8.00;99.90;;;;;;5013788;28;20030;-77
2021/04/15 09:52:03;;;;;;;9.70;2.65;;;7.90;99.90;;;;;;5012355;28;20122;-77
2021/04/15 09:55:05;;;;;;;7.38;2.90;;;7.60;99.90;;;;;;5012421;28;20385;-76
2021/04/15 09:57:59;;;;;;;9.07;3.35;;;7.70;99.90;;;;;;5014064;28;20042;-77
2021/04/15 10:00:32;;;;;;;7.00;2.60;;;7.40;99.90;;;;;;5012427;28;20485;-78
2021/04/15 10:03:21;;;;;;;6.07;3.08;;;7.40;99.90;;;;;;5013866;28;20478;-79
2021/04/15 10:06:19;;;;;;;4.05;2.45;;;7.20;99.90;;;;;;5012377;28;20065;-77
2021/04/15 10:08:57;;;;;;;7.00;3.00;;;7.10;99.90;;;;;;4999719;28;20393;-77
2021/04/15 10:11:44;;;;;;;7.13;2.50;;;7.10;99.90;;;;;;5013406;28;20018;-77
2021/04/15 10:14:35;;;;;;;5.07;2.50;;;7.30;99.90;;;;;;5012092;28;20189;-77
2021/04/15 10:17:18;;;;;;;5.50;2.75;;;7.40;99.90;;;;;;5010356;28;20125;-77
2021/04/15 10:19:55;;;;;;;7.32;2.72;;;7.40;99.90;;;;;;5012177;28;20018;-78
2021/04/15 10:22:48;;;;;;;4.03;2.40;;;7.90;99.90;;;;;;5012144;28;20030;-78
2021/04/15 10:25:19;;;;;;;4.40;2.10;;;8.60;98.30;;;;;;5012374;28;20029;-78
2021/04/15 10:28:06;;;;;;;4.25;2.30;;;8.20;98.40;;;;;;5012042;28;20409;-77
2021/04/15 10:31:09;;;;;;;3.08;2.22;;;7.60;98.50;;;;;;5012144;28;20026;-77
2021/04/15 10:33:45;;;;;;;7.78;2.20;;;7.30;98.00;;;;;;5011982;28;20481;-76
2021/04/15 10:36:30;;;;;;;5.78;2.28;;;7.30;98.60;;;;;;5017412;28;20034;-78
2021/04/15 10:39:08;;;;;;;3.20;1.90;;;7.30;97.10;;;;;;5015787;28;20551;-77
2021/04/15 10:41:58;;;;;;;2.85;1.80;;;7.30;97.70;;;;;;5018260;28;20026;-77
2021/04/15 10:44:58;;;;;;;3.03;2.00;;;8.20;96.70;;;;;;5019000;28;20056;-77
2021/04/15 10:48:00;;;;;;;7.72;2.33;;;9.60;95.00;;;;;;5018985;28;20025;-77
2021/04/15 10:50:28;;;;;;;4.07;2.30;;;10.50;92.00;;;;;;5018965;28;20025;-77
2021/04/15 10:53:03;;;;;;;8.02;2.00;;;11.10;92.50;;;;;;5036563;28;20231;-76
2021/04/15 10:55:35;;;;;;;7.80;1.95;;;11.70;99.90;;;;;;5036626;28;20032;-81
2021/04/15 10:58:22;;;;;;;4.13;2.45;;;11.90;95.90;;;;;;5036632;28;20432;-79
2021/04/15 11:00:48;;;;;;;4.50;2.08;;;10.90;94.60;;;;;;5018747;28;20017;-79
2021/04/15 11:03:19;;;;;;;4.40;1.90;;;10.30;94.00;;;;;;5018778;28;20089;-79
2021/04/15 11:05:48;;;;;;;5.00;2.30;;;9.70;94.80;;;;;;5018689;28;20072;-79
2021/04/15 11:08:29;;;;;;;6.78;2.13;;;9.20;95.30;;;;;;5036298;28;20025;-78
2021/04/15 11:11:09;;;;;;;5.32;1.90;;;9.80;95.00;;;;;;5018952;28;20036;-81
2021/04/15 11:13:36;;;;;;;5.32;2.22;;;10.90;87.90;;;;;;5018592;28;20025;-78
2021/04/15 11:16:03;;;;;;;2.95;1.88;;;11.80;87.20;;;;;;5018534;28;20436;-79
2021/04/15 11:18:35;;;;;;;6.18;2.00;;;12.10;87.50;;;;;;5018388;28;20022;-79
2021/04/15 11:21:28;;;;;;;5.60;2.22;;;12.20;85.60;;;;;;5036114;28;20032;-78
2021/04/15 11:23:55;;;;;;;5.85;2.22;;;11.70;85.40;;;;;;5018319;28;20022;-78
2021/04/15 11:26:41;;;;;;;4.53;1.67;;;12.40;83.50;;;;;;5018347;28;20021;-78
2021/04/15 11:29:24;;;;;;;4.68;1.67;;;12.20;80.00;;;;;;5018395;28;20025;-78
2021/04/15 11:31:50;;;;;;;4.20;2.10;;;11.70;81.30;;;;;;5018158;28;20483;-78
2021/04/15 11:34:27;;;;;;;4.50;1.85;;;11.70;78.00;;;;;;5018243;28;20056;-78
2021/04/15 11:37:25;;;;;;;5.30;1.80;;;12.50;76.00;;;;;;5036031;28;20036;-78
2021/04/15 11:39:51;;;;;;;3.67;1.95;;;12.30;76.70;;;;;;4981855;28;20044;-78
2021/04/15 11:42:17;;;;;;;5.00;1.60;;;11.20;75.50;;;;;;5017767;28;20041;-79
2021/04/15 11:44:54;;;;;;;3.95;1.80;;;10.50;80.20;;;;;;5035628;28;20025;-79
2021/04/15 11:47:28;;;;;;;2.42;1.60;;;9.70;79.20;;;;;;5016826;28;20044;-78
2021/04/15 11:50:15;;;;;;;4.93;1.80;;;10.20;82.30;;;;;;5017889;28;20029;-79
2021/04/15 11:52:46;;;;;;;2.70;2.00;;;11.60;78.30;;;;;;5035387;28;20052;-78
2021/04/15 11:55:14;;;;;;;4.07;1.75;;;12.70;70.70;;;;;;5017759;28;20481;-79
2021/04/15 11:58:05;;;;;;;3.42;1.60;;;13.60;69.50;;;;;;5017755;28;20103;-79
2021/04/15 12:00:36;;;;;;;1.85;1.33;;;14.00;65.60;;;;;;5035616;28;20099;-79
2021/04/15 12:03:02;;;;;;;4.32;1.80;;;14.40;65.50;;;;;;5017520;28;20029;-80
2021/04/15 12:05:49;;;;;;;1.98;1.50;;;14.10;66.30;;;;;;5035504;28;20025;-79
2021/04/15 12:08:27;;;;;;;3.42;2.00;;;14.20;64.40;;;;;;5017510;28;20481;-79
2021/04/15 12:11:18;;;;;;;4.68;2.00;;;14.50;61.60;;;;;;5035172;28;20018;-79
2021/04/15 12:14:05;;;;;;;4.32;2.05;;;13.70;66.70;;;;;;5017369;28;20036;-79
2021/04/15 12:17:13;;;;;;;4.70;2.00;;;12.10;71.30;;;;;;5017251;28;20029;-80
2021/04/15 12:19:44;;;;;;;3.40;2.15;;;11.00;75.40;;;;;;4919765;29;20542;-80
2021/04/15 12:22:31;;;;;;;3.25;1.80;;;10.40;81.10;;;;;;5005210;28;20540;-79
2021/04/15 12:25:20;;;;;;;5.13;2.38;;;9.80;80.00;;;;;;5034902;28;20068;-79
2021/04/15 12:27:56;;;;;;;4.00;2.10;;;9.20;81.40;;;;;;5034880;28;20028;-78
2021/04/15 12:30:32;;;;;;;6.63;2.28;;;9.10;84.00;;;;;;5017102;28;20029;-78
2021/04/15 12:33:45;;;;;;;6.72;2.33;;;9.20;84.30;;;;;;5034949;28;20068;-79
2021/04/15 12:36:17;;;;;;;7.20;2.45;;;10.20;82.40;;;;;;4919477;29;20027;-78
2021/04/15 12:39:02;;;;;;;5.72;2.40;;;9.90;83.10;;;;;;5001184;28;20029;-79
2021/04/15 12:41:31;;;;;;;4.88;2.35;;;9.50;83.30;;;;;;5016863;28;20022;-79
2021/04/15 12:44:17;;;;;;;4.85;2.13;;;9.10;82.10;;;;;;5015064;28;20034;-78
2021/04/15 12:46:45;;;;;;;3.40;2.53;;;8.80;82.00;;;;;;5013518;28;20030;-79
2021/04/15 12:49:17;;;;;;;5.47;2.40;;;8.80;83.00;;;;;;4997308;28;20077;-78
2021/04/15 12:51:57;;;;;;;4.00;2.00;;;9.20;83.10;;;;;;5014632;28;20034;-79
2021/04/15 12:54:27;;;;;;;4.80;2.40;;;11.60;77.30;;;;;;5013349;28;20036;-78
2021/04/15 12:56:58;;;;;;;4.22;2.05;;;11.80;73.10;;;;;;5012863;28;20022;-78
2021/04/15 12:59:32;;;;;;;3.97;2.13;;;11.40;73.90;;;;;;5013252;28;20018;-79
2021/04/15 13:01:59;;;;;;;3.17;1.88;;;10.10;77.30;;;;;;5014775;28;20029;-79
2021/04/15 13:04:53;;;;;;;3.70;2.15;;;9.50;80.10;;;;;;5013137;28;20026;-78
2021/04/15 13:07:22;;;;;;;4.53;2.17;;;8.90;82.30;;;;;;5013146;28;20472;-79
2021/04/15 13:10:12;;;;;;;2.40;2.20;;;8.60;82.70;;;;;;5014232;28;20389;-78
2021/04/15 13:12:48;;;;;;;4.85;2.20;;;8.50;81.80;;;;;;5012661;28;20030;-78
2021/04/15 13:15:23;;;;;;;5.15;2.53;;;8.40;84.10;;;;;;5012971;28;20030;-78
2021/04/15 13:17:53;;;;;;;3.00;2.03;;;8.40;82.00;;;;;;5012916;28;20033;-78
2021/04/15 13:20:19;;;;;;;6.60;2.60;;;8.60;84.40;;;;;;5013191;28;20527;-79
2021/04/15 13:22:49;;;;;;;4.57;2.00;;;8.70;82.20;;;;;;5014303;28;20021;-78
2021/04/15 13:25:32;;;;;;;3.10;2.20;;;8.70;81.50;;;;;;5012768;28;20453;-78
2021/04/15 13:27:58;;;;;;;2.63;1.85;;;8.60;78.40;;;;;;5012794;28;20044;-78
2021/04/15 13:30:31;;;;;;;3.55;2.22;;;9.10;80.70;;;;;;5013930;28;20029;-78
2021/04/15 13:33:09;;;;;;;7.68;2.30;;;11.20;74.80;;;;;;5012728;28;20033;-79
2021/04/15 13:35:41;;;;;;;3.63;2.47;;;;;;;;;;5014520;28;20060;-79
2021/04/15 13:38:26;;;;;;;6.28;2.47;;;14.50;66.40;;;;;;5012472;28;20025;-79
2021/04/15 13:41:01;;;;;;;;;;;13.50;69.90;;;;;;5014218;28;20018;-79
2021/04/15 13:43:45;;;;;;;4.28;2.13;;;12.30;73.40;;;;;;5012349;28;19943;-79
2021/04/15 13:46:44;;;;;;;7.75;2.85;;;11.00;77.90;;;;;;5012501;28;20033;-78
2021/04/15 13:49:14;;;;;;;4.47;2.08;;;9.90;82.10;;;;;;5013591;28;20417;-79
2021/04/15 13:51:47;;;;;;;3.20;2.38;;;9.30;84.30;;;;;;5013625;28;20029;-79
2021/04/15 13:54:20;;;;;;;4.68;2.15;;;9.10;85.70;;;;;;5013637;28;20014;-78
2021/04/15 13:56:57;;;;;;;3.92;2.65;;;10.30;83.10;;;;;;5012362;28;20478;-79
2021/04/15 13:59:51;;;;;;;4.35;2.22;;;11.80;78.60;;;;;;5012409;28;20496;-80